Time;durP1;ratioP1;P1;durP2;ratioP2;P2;SDS_P1;SDS_P2;PMS_P1;PMS_P2;Temp;Humidity;BMP_temperature;BMP_pressure;BME280_temperature;BME280_humidity;BME280_pressure;Samples;Min_cycle;Max_cycle;Signal;HPM_P1;HPM_P2
2023/10/20 00:00:06;;;;;;;7.50;6.80;;;;;;;;;;5135105;27;20300;-41
2023/10/20 00:02:33;;;;;;;8.67;6.70;;;;;;;;;;5142522;27;20222;-38
2023/10/20 00:05:05;;;;;;;7.80;6.93;;;;;;;;;;5133098;27;20291;-40
2023/10/20 00:07:32;;;;;;;8.43;7.57;;;;;;;;;;5125878;27;20219;-36
2023/10/20 00:09:59;;;;;;;7.63;6.60;;;;;;;;;;5137363;27;20228;-39
2023/10/20 00:12:27;;;;;;;9.13;7.30;;;;;;;;;;5133375;27;20223;-39
2023/10/20 00:14:54;;;;;;;8.67;7.00;;;;;;;;;;5129416;27;20238;-37
2023/10/20 00:17:21;;;;;;;8.87;6.73;;;;;;;;;;5134409;27;20199;-41
2023/10/20 00:19:48;;;;;;;8.93;7.50;;;;;;;;;;5135015;27;20214;-38
2023/10/20 00:22:17;;;;;;;7.93;6.50;;;;;;;;;;5126883;27;20205;-39
2023/10/20 00:24:45;;;;;;;9.07;6.77;;;;;;;;;;5136842;27;20208;-36
2023/10/20 00:27:13;;;;;;;9.53;6.53;;;;;;;;;;5127596;27;20214;-38
2023/10/20 00:29:40;;;;;;;8.57;6.80;;;;;;;;;;5125075;27;20231;-37
2023/10/20 00:32:08;;;;;;;8.07;6.53;;;;;;;;;;5137667;27;20223;-37
2023/10/20 00:34:37;;;;;;;8.57;6.33;;;;;;;;;;5140849;27;20607;-40
2023/10/20 00:37:04;;;;;;;7.03;6.43;;;;;;;;;;5125308;27;20235;-40
2023/10/20 00:39:34;;;;;;;9.83;6.27;;;;;;;;;;5137005;27;20219;-38
2023/10/20 00:42:02;;;;;;;8.20;6.03;;;;;;;;;;5136811;27;20199;-41
2023/10/20 00:44:29;;;;;;;7.37;5.97;;;;;;;;;;5122729;27;20204;-39
2023/10/20 00:46:56;;;;;;;8.90;6.37;;;;;;;;;;5130516;27;20627;-39
2023/10/20 00:49:24;;;;;;;8.27;6.40;;;;;;;;;;5141962;27;20272;-40
2023/10/20 00:51:51;;;;;;;11.87;7.27;;;;;;;;;;5130828;27;20211;-39
2023/10/20 00:54:20;;;;;;;9.30;6.50;;;;;;;;;;5138787;27;20198;-40
2023/10/20 00:56:49;;;;;;;8.00;6.40;;;;;;;;;;5144858;27;20663;-37
2023/10/20 00:59:16;;;;;;;7.63;6.60;;;;;;;;;;5123023;27;20223;-40
2023/10/20 01:01:44;;;;;;;6.87;5.97;;;;;;;;;;5131322;27;20319;-40
2023/10/20 01:04:11;;;;;;;7.83;6.43;;;;;;;;;;5135492;27;20210;-43
2023/10/20 01:06:38;;;;;;;6.13;5.30;;;;;;;;;;5143039;27;20197;-41
2023/10/20 01:09:09;;;;;;;7.70;6.23;;;;;;;;;;5133409;27;20223;-37
2023/10/20 01:11:37;;;;;;;8.53;6.67;;;;;;;;;;5122567;27;20217;-38
2023/10/20 01:14:05;;;;;;;8.53;6.13;;;;;;;;;;5131709;27;20207;-36
2023/10/20 01:16:32;;;;;;;7.17;6.47;;;;;;;;;;5137588;27;20224;-39
2023/10/20 01:19:01;;;;;;;8.20;6.53;;;;;;;;;;5137301;27;20219;-36
2023/10/20 01:21:28;;;;;;;8.30;6.77;;;;;;;;;;5133536;27;20200;-37
2023/10/20 01:24:01;;;;;;;7.07;6.37;;;;;;;;;;5129343;27;20781;-37
2023/10/20 01:26:29;;;;;;;6.73;6.03;;;;;;;;;;5146158;27;20199;-40
2023/10/20 01:28:56;;;;;;;10.60;6.60;;;;;;;;;;5126324;27;20237;-40
2023/10/20 01:31:23;;;;;;;8.17;5.83;;;;;;;;;;5129277;27;20204;-41
2023/10/20 01:33:50;;;;;;;9.67;6.13;;;;;;;;;;5133678;27;20214;-38
2023/10/20 01:36:17;;;;;;;7.03;5.80;;;;;;;;;;5131065;27;20205;-37
2023/10/20 01:38:45;;;;;;;6.93;5.63;;;;;;;;;;5137517;27;20235;-36
2023/10/20 01:41:13;;;;;;;9.90;6.30;;;;;;;;;;5130491;27;20208;-38
2023/10/20 01:43:40;;;;;;;7.87;6.47;;;;;;;;;;5119857;27;20191;-39
2023/10/20 01:46:08;;;;;;;8.87;5.37;;;;;;;;;;5127367;27;20202;-41
2023/10/20 01:48:35;;;;;;;6.83;5.87;;;;;;;;;;5139397;27;20254;-37
2023/10/20 01:51:03;;;;;;;6.50;5.87;;;;;;;;;;5113804;27;20263;-41
2023/10/20 01:53:31;;;;;;;7.93;5.10;;;;;;;;;;5124955;27;20314;-41
2023/10/20 01:55:58;;;;;;;7.00;5.70;;;;;;;;;;5135695;27;20201;-41
2023/10/20 01:58:26;;;;;;;6.30;5.57;;;;;;;;;;5127143;27;20432;-39
2023/10/20 02:00:53;;;;;;;6.90;5.47;;;;;;;;;;5132177;27;20202;-38
2023/10/20 02:03:21;;;;;;;6.13;4.90;;;;;;;;;;5127876;27;20249;-40
2023/10/20 02:05:48;;;;;;;8.20;5.20;;;;;;;;;;5132832;27;20291;-40
2023/10/20 02:08:15;;;;;;;7.50;6.00;;;;;;;;;;5118634;27;20204;-37
2023/10/20 02:10:44;;;;;;;6.10;5.50;;;;;;;;;;5127916;27;20207;-43
2023/10/20 02:13:12;;;;;;;8.63;5.33;;;;;;;;;;5115091;27;20223;-37
2023/10/20 02:15:40;;;;;;;7.00;4.97;;;;;;;;;;5126619;27;20203;-41
2023/10/20 02:18:07;;;;;;;6.20;5.13;;;;;;;;;;5134119;27;20218;-39
2023/10/20 02:20:35;;;;;;;6.13;5.53;;;;;;;;;;5125402;27;20196;-36
2023/10/20 02:23:02;;;;;;;6.73;5.40;;;;;;;;;;5128458;27;20204;-40
2023/10/20 02:25:29;;;;;;;8.40;5.53;;;;;;;;;;5128788;27;20220;-43
2023/10/20 02:27:57;;;;;;;9.17;5.93;;;;;;;;;;5123891;27;20200;-39
2023/10/20 02:30:24;;;;;;;8.13;5.23;;;;;;;;;;5133500;27;20231;-37
2023/10/20 02:32:54;;;;;;;6.40;5.73;;;;;;;;;;5134497;27;20281;-39
2023/10/20 02:35:21;;;;;;;8.57;6.17;;;;;;;;;;5130090;27;20238;-41
2023/10/20 02:37:49;;;;;;;9.97;6.83;;;;;;;;;;5125668;27;20205;-42
2023/10/20 02:40:16;;;;;;;10.47;7.13;;;;;;;;;;5128390;27;20227;-38
2023/10/20 02:42:44;;;;;;;11.13;7.77;;;;;;;;;;5127681;27;20210;-37
2023/10/20 02:45:11;;;;;;;9.33;7.47;;;;;;;;;;5132519;27;20637;-44
2023/10/20 02:47:39;;;;;;;11.13;7.43;;;;;;;;;;5132328;27;20211;-41
2023/10/20 02:50:08;;;;;;;12.50;7.73;;;;;;;;;;5131178;27;20262;-40
2023/10/20 02:52:35;;;;;;;9.70;6.93;;;;;;;;;;5128368;27;20635;-36
2023/10/20 02:55:03;;;;;;;9.83;7.97;;;;;;;;;;5134082;27;20206;-37
2023/10/20 02:57:30;;;;;;;8.50;7.30;;;;;;;;;;5129156;27;20209;-39
2023/10/20 02:59:57;;;;;;;11.77;8.43;;;;;;;;;;5127010;27;20565;-37
2023/10/20 03:02:26;;;;;;;8.87;7.70;;;;;;;;;;5133114;27;20199;-37
2023/10/20 03:04:54;;;;;;;9.63;7.60;;;;;;;;;;5133514;27;20211;-41
2023/10/20 03:07:27;;;;;;;12.10;7.27;;;;;;;;;;5123338;27;20200;-41
2023/10/20 03:09:54;;;;;;;11.70;8.13;;;;;;;;;;5131900;27;20230;-39
2023/10/20 03:12:21;;;;;;;9.47;6.87;;;;;;;;;;5129937;27;20199;-42
2023/10/20 03:14:49;;;;;;;12.30;7.60;;;;;;;;;;5133479;27;20606;-36
2023/10/20 03:17:16;;;;;;;12.50;8.93;;;;;;;;;;5132419;27;20203;-42
2023/10/20 03:19:45;;;;;;;12.97;9.40;;;;;;;;;;5133084;27;20219;-39
2023/10/20 03:22:13;;;;;;;9.53;8.13;;;;;;;;;;5121281;28;20201;-43
2023/10/20 03:24:42;;;;;;;11.30;8.60;;;;;;;;;;5139680;27;20195;-40
2023/10/20 03:27:09;;;;;;;14.43;8.37;;;;;;;;;;5137034;27;20204;-39
2023/10/20 03:29:36;;;;;;;13.27;8.63;;;;;;;;;;5130801;27;20231;-40
2023/10/20 03:32:04;;;;;;;11.77;8.53;;;;;;;;;;5129900;27;20199;-37
2023/10/20 03:34:33;;;;;;;12.50;7.70;;;;;;;;;;5138339;27;20223;-42
2023/10/20 03:37:00;;;;;;;10.50;8.03;;;;;;;;;;5133264;27;20196;-40
2023/10/20 03:39:27;;;;;;;13.47;10.30;;;;;;;;;;5143149;27;20570;-39
2023/10/20 03:41:56;;;;;;;15.77;10.70;;;;;;;;;;5137482;27;20244;-41
2023/10/20 03:44:23;;;;;;;9.33;7.00;;;;;;;;;;5129376;27;20521;-35
2023/10/20 03:46:56;;;;;;;12.33;8.70;;;;;;;;;;5145163;27;20290;-43
2023/10/20 03:49:23;;;;;;;12.30;9.03;;;;;;;;;;5140254;27;20222;-37
2023/10/20 03:51:51;;;;;;;14.07;9.47;;;;;;;;;;5136092;27;20208;-39
2023/10/20 03:54:18;;;;;;;18.97;11.27;;;;;;;;;;5138355;27;20246;-41
2023/10/20 03:56:46;;;;;;;14.60;11.43;;;;;;;;;;5133997;27;20270;-39
2023/10/20 03:59:15;;;;;;;15.27;11.53;;;;;;;;;;5130056;27;20223;-41
2023/10/20 04:01:42;;;;;;;13.57;11.00;;;;;;;;;;5143414;27;20206;-40
2023/10/20 04:04:09;;;;;;;18.00;12.80;;;;;;;;;;5137224;27;20194;-42
2023/10/20 04:06:37;;;;;;;14.13;10.03;;;;;;;;;;5130606;27;20208;-41
2023/10/20 04:09:08;;;;;;;11.10;8.67;;;;;;;;;;5146832;27;20222;-36
2023/10/20 04:11:35;;;;;;;17.17;11.57;;;;;;;;;;5134987;27;20214;-42
2023/10/20 04:14:05;;;;;;;14.20;10.97;;;;;;;;;;5128109;27;20214;-39
2023/10/20 04:16:39;;;;;;;13.57;10.53;;;;;;;;;;5136069;27;20219;-43
2023/10/20 04:19:09;;;;;;;10.90;8.40;;;;;;;;;;5138161;27;20637;-38
2023/10/20 04:21:38;;;;;;;15.47;12.07;;;;;;;;;;5123398;27;20285;-40
2023/10/20 04:24:06;;;;;;;16.80;11.13;;;;;;;;;;5137261;27;20195;-41
2023/10/20 04:26:35;;;;;;;16.00;12.47;;;;;;;;;;5147454;27;20209;-43
2023/10/20 04:29:23;;;;;;;16.60;13.00;;;;;;;;;;5123203;27;20608;-40
2023/10/20 04:51:43;;;;;;;15.07;11.47;;;;;;;;;;5135795;27;20211;-42
2023/10/20 04:54:10;;;;;;;14.40;11.53;;;;;;;;;;5135335;27;20443;-43
2023/10/20 04:56:39;;;;;;;10.10;8.53;;;;;;;;;;5129453;27;20205;-39
2023/10/20 04:59:05;;;;;;;10.90;7.37;;;;;;;;;;5119399;27;20241;-39
2023/10/20 05:01:42;;;;;;;12.60;8.83;;;;;;;;;;5134866;27;20201;-41
2023/10/20 05:04:16;;;;;;;9.00;7.27;;;;;;;;;;5139777;27;20199;-44
2023/10/20 05:06:44;;;;;;;8.93;6.43;;;;;;;;;;5125390;27;20275;-42
2023/10/20 05:09:14;;;;;;;7.67;6.40;;;;;;;;;;5127615;27;20230;-38
2023/10/20 05:11:41;;;;;;;10.20;8.03;;;;;;;;;;5142496;27;20667;-38
2023/10/20 05:14:08;;;;;;;10.27;7.90;;;;;;;;;;5120908;27;20280;-43
2023/10/20 05:16:35;;;;;;;10.97;7.63;;;;;;;;;;5138555;27;20202;-42
2023/10/20 05:19:04;;;;;;;11.27;7.00;;;;;;;;;;5130691;27;20228;-38
2023/10/20 05:21:34;;;;;;;8.47;6.73;;;;;;;;;;5124807;27;20201;-41
2023/10/20 05:24:04;;;;;;;7.03;5.80;;;;;;;;;;5125951;27;20298;-42
2023/10/20 05:26:32;;;;;;;8.77;6.90;;;;;;;;;;5131229;27;20203;-39
2023/10/20 05:28:59;;;;;;;14.07;7.07;;;;;;;;;;5123924;27;20516;-38
2023/10/20 05:31:27;;;;;;;8.23;6.77;;;;;;;;;;5125105;27;20253;-39
2023/10/20 05:33:54;;;;;;;8.03;6.23;;;;;;;;;;5131160;27;20232;-43
2023/10/20 05:36:21;;;;;;;9.63;6.17;;;;;;;;;;5131427;27;20354;-40
2023/10/20 05:38:49;;;;;;;12.43;8.10;;;;;;;;;;5121218;27;20230;-42
2023/10/20 05:41:16;;;;;;;8.13;6.77;;;;;;;;;;5139432;27;20208;-37
2023/10/20 05:43:44;;;;;;;12.27;7.43;;;;;;;;;;5115400;27;20232;-39
2023/10/20 05:46:15;;;;;;;7.13;6.33;;;;;;;;;;5125177;27;20214;-43
2023/10/20 05:48:42;;;;;;;9.43;6.90;;;;;;;;;;5130676;27;20235;-42
2023/10/20 05:51:09;;;;;;;9.70;8.67;;;;;;;;;;5121980;27;20195;-41
2023/10/20 05:53:37;;;;;;;10.20;7.40;;;;;;;;;;5130875;27;20226;-38
2023/10/20 05:56:06;;;;;;;10.20;8.30;;;;;;;;;;5131172;27;20203;-38
2023/10/20 05:58:34;;;;;;;9.60;7.70;;;;;;;;;;5119921;27;20224;-39
2023/10/20 06:01:05;;;;;;;10.17;7.63;;;;;;;;;;5131290;27;20212;-38
2023/10/20 06:06:59;;;;;;;;;;;;;;;;;;;;;
2023/10/20 06:09:53;;;;;;;12.37;9.10;;;;;;;;;;5120799;27;20225;-37
2023/10/20 06:12:28;;;;;;;8.00;6.80;;;;;;;;;;5124514;27;20213;-41
2023/10/20 06:15:00;;;;;;;10.20;8.00;;;;;;;;;;5122945;27;20227;-38
2023/10/20 06:20:25;;;;;;;12.53;8.13;;;;;;;;;;5124435;27;20219;-43
2023/10/20 06:23:10;;;;;;;10.80;7.77;;;;;;;;;;5126584;27;20200;-36
2023/10/20 06:25:48;;;;;;;10.47;8.53;;;;;;;;;;5130781;27;20225;-40
2023/10/20 06:31:41;;;;;;;8.33;7.27;;;;;;;;;;5129088;27;20203;-40
2023/10/20 06:34:23;;;;;;;11.37;8.67;;;;;;;;;;5127550;27;20227;-41
2023/10/20 06:40:15;;;;;;;12.27;7.20;;;;;;;;;;5120314;27;20246;-39
2023/10/20 06:45:46;;;;;;;11.27;8.27;;;;;;;;;;5109936;27;20211;-43
2023/10/20 06:48:18;;;;;;;7.07;6.37;;;;;;;;;;5141184;27;20207;-39
2023/10/20 06:51:06;;;;;;;8.60;7.07;;;;;;;;;;5143775;27;20207;-40
2023/10/20 07:06:17;;;;;;;12.43;9.40;;;;;;;;;;5095820;27;20203;-43
2023/10/20 07:12:32;;;;;;;10.60;8.37;;;;;;;;;;5108919;27;20206;-40
2023/10/20 07:15:19;;;;;;;11.50;8.97;;;;;;;;;;5120535;27;20230;-40
2023/10/20 07:18:02;;;;;;;13.20;8.53;;;;;;;;;;5137557;27;20254;-38
2023/10/20 07:20:38;;;;;;;10.70;7.83;;;;;;;;;;5121281;27;20219;-37
2023/10/20 07:23:28;;;;;;;11.27;8.83;;;;;;;;;;5119802;27;20280;-39
2023/10/20 07:26:21;;;;;;;;;;;;;;;;;;;;;
2023/10/20 07:29:12;;;;;;;11.27;8.63;;;;;;;;;;5120499;27;20261;-38
2023/10/20 07:31:54;;;;;;;11.27;8.50;;;;;;;;;;5134454;27;20676;-41
2023/10/20 07:34:25;;;;;;;10.50;8.70;;;;;;;;;;5133321;27;20258;-39
2023/10/20 07:37:14;;;;;;;11.93;8.97;;;;;;;;;;5128206;27;20286;-37
2023/10/20 07:39:47;;;;;;;11.27;8.10;;;;;;;;;;5123316;27;20224;-41
2023/10/20 07:42:19;;;;;;;10.50;9.40;;;;;;;;;;5133474;27;20214;-40
2023/10/20 07:44:56;;;;;;;11.30;8.63;;;;;;;;;;5120899;27;20207;-40
2023/10/20 07:48:05;;;;;;;15.90;8.87;;;;;;;;;;5125090;27;20287;-43
2023/10/20 07:50:50;;;;;;;12.97;9.60;;;;;;;;;;5124187;28;20215;-40
2023/10/20 07:53:40;;;;;;;11.27;9.47;;;;;;;;;;5130452;27;20206;-38
2023/10/20 07:56:31;;;;;;;12.40;10.50;;;;;;;;;;5134750;27;20203;-39
2023/10/20 07:59:17;;;;;;;12.47;10.53;;;;;;;;;;5102124;28;20219;-36
2023/10/20 08:02:12;;;;;;;12.27;9.10;;;;;;;;;;5088036;28;20208;-40
2023/10/20 08:04:57;;;;;;;;;;;;;;;;;;;;;
2023/10/20 08:07:34;;;;;;;12.87;10.07;;;;;;;;;;5125459;27;20195;-40
2023/10/20 08:10:12;;;;;;;11.10;9.57;;;;;;;;;;5127839;28;20220;-43
2023/10/20 08:12:46;;;;;;;11.20;9.40;;;;;;;;;;5127376;28;20212;-39
2023/10/20 08:15:32;;;;;;;12.13;9.17;;;;;;;;;;5130189;28;20612;-41
2023/10/20 08:18:27;;;;;;;13.37;9.53;;;;;;;;;;5127927;27;20211;-40
2023/10/20 08:21:16;;;;;;;11.43;9.33;;;;;;;;;;5139165;27;20199;-35
2023/10/20 08:24:04;;;;;;;11.43;8.40;;;;;;;;;;5123489;27;20203;-39
2023/10/20 08:29:49;;;;;;;18.07;11.73;;;;;;;;;;5125979;27;20223;-41
2023/10/20 08:35:37;;;;;;;15.20;11.23;;;;;;;;;;5134614;27;20472;-40
2023/10/20 08:41:10;;;;;;;16.37;12.03;;;;;;;;;;5127281;27;20221;-39
2023/10/20 08:43:48;;;;;;;14.50;11.93;;;;;;;;;;5124028;27;20204;-40
2023/10/20 08:46:37;;;;;;;14.87;12.07;;;;;;;;;;5133470;27;20654;-39
2023/10/20 08:52:31;;;;;;;16.37;12.60;;;;;;;;;;5065863;28;20209;-37
2023/10/20 08:55:07;;;;;;;16.43;14.33;;;;;;;;;;5139594;27;20229;-39
2023/10/20 09:00:31;;;;;;;20.03;13.37;;;;;;;;;;5130898;27;20222;-39
2023/10/20 09:09:23;;;;;;;16.50;13.87;;;;;;;;;;5126482;27;20289;-38
2023/10/20 09:12:08;;;;;;;15.33;12.53;;;;;;;;;;5127851;27;20307;-40
2023/10/20 09:14:47;;;;;;;16.80;12.77;;;;;;;;;;5104233;27;20223;-32
2023/10/20 09:17:33;;;;;;;14.40;11.97;;;;;;;;;;5135477;27;20213;-39
2023/10/20 09:20:25;;;;;;;14.17;10.27;;;;;;;;;;5137649;27;20223;-36
2023/10/20 09:23:08;;;;;;;11.63;7.77;;;;;;;;;;5128367;27;20211;-39
2023/10/20 09:25:41;;;;;;;11.67;8.93;;;;;;;;;;5126621;27;20225;-41
2023/10/20 09:28:20;;;;;;;14.20;9.50;;;;;;;;;;5119095;27;20207;-40
2023/10/20 09:31:11;;;;;;;14.67;9.87;;;;;;;;;;5122743;27;20211;-40
2023/10/20 09:34:06;;;;;;;10.83;8.93;;;;;;;;;;5135773;27;20209;-38
2023/10/20 09:36:58;;;;;;;10.93;9.20;;;;;;;;;;5126597;27;20199;-37
2023/10/20 09:39:45;;;;;;;10.03;8.60;;;;;;;;;;5136575;27;20212;-41
2023/10/20 09:42:45;;;;;;;9.03;7.60;;;;;;;;;;5135153;27;20251;-40
2023/10/20 09:45:30;;;;;;;10.13;8.03;;;;;;;;;;5133213;27;20195;-40
2023/10/20 09:48:17;;;;;;;8.13;7.03;;;;;;;;;;5125689;27;20210;-43
2023/10/20 09:50:55;;;;;;;7.70;7.00;;;;;;;;;;5126348;27;20583;-37
2023/10/20 09:53:34;;;;;;;7.37;6.20;;;;;;;;;;5134963;27;20209;-38
2023/10/20 09:56:14;;;;;;;8.10;6.60;;;;;;;;;;5134215;27;20272;-41
2023/10/20 09:58:59;;;;;;;7.67;6.20;;;;;;;;;;5117862;27;20595;-41
2023/10/20 10:01:57;;;;;;;6.93;6.23;;;;;;;;;;5126012;27;20231;-36
2023/10/20 10:04:52;;;;;;;6.57;5.77;;;;;;;;;;5135484;27;20219;-40
2023/10/20 10:07:38;;;;;;;6.13;5.43;;;;;;;;;;5119111;27;20257;-41
2023/10/20 10:10:24;;;;;;;8.93;5.57;;;;;;;;;;5128666;27;20242;-40
2023/10/20 10:13:04;;;;;;;7.37;6.27;;;;;;;;;;5133064;27;20196;-36
2023/10/20 10:16:02;;;;;;;6.70;5.60;;;;;;;;;;5117025;27;20219;-40
2023/10/20 10:18:43;;;;;;;7.50;5.53;;;;;;;;;;5127813;27;20275;-39
2023/10/20 10:21:34;;;;;;;7.87;5.80;;;;;;;;;;5126817;27;20204;-37
2023/10/20 10:27:02;;;;;;;6.60;5.30;;;;;;;;;;5114521;27;20212;-33
2023/10/20 10:29:53;;;;;;;5.57;4.93;;;;;;;;;;5124824;27;20307;-41
2023/10/20 10:32:36;;;;;;;9.43;5.70;;;;;;;;;;5130693;27;20202;-41
2023/10/20 10:35:04;;;;;;;4.13;3.70;;;;;;;;;;5140756;27;20251;-41
2023/10/20 10:37:42;;;;;;;4.63;4.17;;;;;;;;;;5123269;27;20204;-38
2023/10/20 10:41:07;;;;;;;3.80;3.50;;;;;;;;;;5123364;27;20332;-41
2023/10/20 10:43:53;;;;;;;4.17;3.23;;;;;;;;;;5091158;27;20207;-33
2023/10/20 10:46:57;;;;;;;3.67;3.03;;;;;;;;;;5136177;27;20287;-37
2023/10/20 10:49:53;;;;;;;3.40;2.80;;;;;;;;;;5101146;27;20234;-39
2023/10/20 10:52:29;;;;;;;3.17;2.87;;;;;;;;;;5121019;27;20293;-38
2023/10/20 10:55:02;;;;;;;3.27;2.60;;;;;;;;;;5124889;27;20219;-39
2023/10/20 10:57:33;;;;;;;2.67;2.47;;;;;;;;;;5123116;27;20979;-40
2023/10/20 11:00:04;;;;;;;2.90;2.60;;;;;;;;;;5116456;27;20223;-39
2023/10/20 11:02:41;;;;;;;2.70;2.50;;;;;;;;;;5127088;27;20199;-42
2023/10/20 11:05:22;;;;;;;2.70;2.50;;;;;;;;;;5140738;27;20232;-39
2023/10/20 11:10:50;;;;;;;3.23;2.47;;;;;;;;;;5131080;27;20206;-39
2023/10/20 11:13:24;;;;;;;2.60;2.40;;;;;;;;;;5122341;27;20199;-39
2023/10/20 11:16:22;;;;;;;5.60;3.40;;;;;;;;;;5129786;27;20317;-39
2023/10/20 11:22:08;;;;;;;2.70;1.83;;;;;;;;;;5120496;27;20215;-38
2023/10/20 11:25:08;;;;;;;1.67;1.50;;;;;;;;;;5073814;28;20347;-40
2023/10/20 11:30:34;;;;;;;2.67;1.57;;;;;;;;;;5118895;27;20231;-38
2023/10/20 11:33:12;;;;;;;1.60;1.50;;;;;;;;;;5131380;27;20202;-39
2023/10/20 11:36:04;;;;;;;1.47;1.37;;;;;;;;;;5125465;27;20230;-41
2023/10/20 11:38:36;;;;;;;1.87;1.73;;;;;;;;;;5123697;28;20229;-40
2023/10/20 11:41:10;;;;;;;1.60;1.50;;;;;;;;;;5095258;28;20294;-40
2023/10/20 11:46:33;;;;;;;2.93;1.53;;;;;;;;;;5130484;27;20259;-38
2023/10/20 11:49:24;;;;;;;1.83;1.73;;;;;;;;;;5129568;27;20628;-43
2023/10/20 11:52:23;;;;;;;;;;;;;;;;;;;;;
2023/10/20 11:55:04;;;;;;;1.70;1.60;;;;;;;;;;5129632;27;20217;-38
2023/10/20 11:58:05;;;;;;;2.97;1.67;;;;;;;;;;5131097;27;20326;-40
2023/10/20 12:03:18;;;;;;;2.50;1.70;;;;;;;;;;5135584;27;20573;-38
2023/10/20 12:06:14;;;;;;;1.70;1.60;;;;;;;;;;5141846;27;20249;-37
2023/10/20 12:08:47;;;;;;;3.00;1.90;;;;;;;;;;5122742;27;20719;-38
2023/10/20 12:14:48;;;;;;;1.87;1.70;;;;;;;;;;5127138;27;20267;-41
2023/10/20 12:17:28;;;;;;;1.70;1.60;;;;;;;;;;5124039;27;20620;-40
2023/10/20 12:20:24;;;;;;;1.60;1.50;;;;;;;;;;5139136;27;20301;-38
2023/10/20 12:23:17;;;;;;;1.63;1.53;;;;;;;;;;5122069;27;20242;-40
2023/10/20 12:26:03;;;;;;;1.80;1.70;;;;;;;;;;5122655;27;20696;-41
2023/10/20 12:31:53;;;;;;;1.37;1.37;;;;;;;;;;5129712;27;20242;-43
2023/10/20 12:34:27;;;;;;;3.07;1.83;;;;;;;;;;5127115;27;20207;-38
2023/10/20 12:40:03;;;;;;;2.23;1.53;;;;;;;;;;5104164;27;20574;-41
2023/10/20 12:42:38;;;;;;;2.57;1.47;;;;;;;;;;5137341;27;20615;-44
2023/10/20 12:45:10;;;;;;;1.67;1.20;;;;;;;;;;5131576;27;20617;-43
2023/10/20 12:47:39;;;;;;;1.00;1.00;;;;;;;;;;5130132;27;20207;-35
2023/10/20 12:50:14;;;;;;;1.53;1.23;;;;;;;;;;5129469;27;20239;-37
2023/10/20 12:52:50;;;;;;;1.40;1.30;;;;;;;;;;5125373;27;20239;-37
2023/10/20 12:55:30;;;;;;;1.67;1.07;;;;;;;;;;5134340;27;20585;-42
2023/10/20 12:58:13;;;;;;;1.10;1.00;;;;;;;;;;5127163;27;20195;-41
2023/10/20 13:03:51;;;;;;;1.30;1.00;;;;;;;;;;5135917;27;20246;-40
2023/10/20 13:09:27;;;;;;;1.43;0.90;;;;;;;;;;5126278;27;20259;-37
2023/10/20 13:12:04;;;;;;;1.50;0.70;;;;;;;;;;5129975;27;20207;-43
2023/10/20 13:14:36;;;;;;;0.90;0.50;;;;;;;;;;5134409;27;20199;-36
2023/10/20 13:17:23;;;;;;;0.40;0.40;;;;;;;;;;5134929;27;20448;-38
2023/10/20 13:19:56;;;;;;;0.40;0.40;;;;;;;;;;5123006;27;20231;-41
2023/10/20 13:22:48;;;;;;;0.30;0.30;;;;;;;;;;5127107;27;20199;-41
2023/10/20 13:25:26;;;;;;;0.20;0.20;;;;;;;;;;5126057;27;20715;-38
2023/10/20 13:28:15;;;;;;;0.20;0.20;;;;;;;;;;5130171;27;20210;-41
2023/10/20 13:31:09;;;;;;;0.20;0.20;;;;;;;;;;5147971;27;20901;-37
2023/10/20 13:33:55;;;;;;;0.20;0.20;;;;;;;;;;5137015;27;20234;-40
2023/10/20 13:36:34;;;;;;;0.23;0.23;;;;;;;;;;5128788;27;20243;-36
2023/10/20 13:39:02;;;;;;;0.20;0.20;;;;;;;;;;5134344;27;20223;-39
2023/10/20 13:41:37;;;;;;;0.20;0.20;;;;;;;;;;5140745;27;20468;-37
2023/10/20 13:44:20;;;;;;;0.17;0.17;;;;;;;;;;5131109;27;20208;-38
2023/10/20 13:46:55;;;;;;;0.10;0.10;;;;;;;;;;5129907;27;20203;-36
2023/10/20 13:49:34;;;;;;;0.37;0.20;;;;;;;;;;5136252;27;20246;-42
2023/10/20 13:52:22;;;;;;;0.20;0.20;;;;;;;;;;5123066;27;20199;-40
2023/10/20 13:55:12;;;;;;;0.10;0.10;;;;;;;;;;5133333;27;20203;-38
2023/10/20 13:57:43;;;;;;;2.80;0.10;;;;;;;;;;5126908;27;20242;-39
2023/10/20 14:00:14;;;;;;;0.30;0.30;;;;;;;;;;5133306;27;20227;-38
2023/10/20 14:02:47;;;;;;;0.30;0.30;;;;;;;;;;5137160;27;20202;-35
2023/10/20 14:05:23;;;;;;;0.73;0.30;;;;;;;;;;5131649;27;20216;-40
2023/10/20 14:08:17;;;;;;;;;;;;;;;;;;;;;
2023/10/20 14:10:54;;;;;;;0.30;0.30;;;;;;;;;;5127355;27;20583;-35
2023/10/20 14:13:26;;;;;;;0.50;0.33;;;;;;;;;;5120029;27;20318;-42
2023/10/20 14:16:13;;;;;;;0.30;0.30;;;;;;;;;;5129926;27;20227;-37
2023/10/20 14:18:48;;;;;;;0.20;0.20;;;;;;;;;;5130454;27;20227;-38
2023/10/20 14:21:29;;;;;;;0.23;0.23;;;;;;;;;;5123342;27;20218;-34
2023/10/20 14:24:09;;;;;;;8.13;0.53;;;;;;;;;;5128642;27;20207;-43
2023/10/20 14:26:42;;;;;;;0.30;0.30;;;;;;;;;;5141156;27;20217;-41
2023/10/20 14:29:17;;;;;;;0.57;0.27;;;;;;;;;;5112699;27;20263;-43
2023/10/20 14:31:48;;;;;;;0.30;0.30;;;;;;;;;;5129326;27;20207;-38
2023/10/20 14:34:33;;;;;;;1.80;0.27;;;;;;;;;;5131171;27;20199;-33
2023/10/20 14:37:21;;;;;;;0.87;0.30;;;;;;;;;;5124327;27;20219;-37
2023/10/20 14:39:52;;;;;;;1.50;0.60;;;;;;;;;;5113554;27;20246;-36
2023/10/20 14:42:35;;;;;;;0.30;0.30;;;;;;;;;;5121152;27;20326;-39
2023/10/20 14:51:10;;;;;;;0.53;0.20;;;;;;;;;;5052135;28;20341;-40
2023/10/20 14:53:52;;;;;;;0.13;0.13;;;;;;;;;;5094464;27;20202;-38
2023/10/20 14:56:27;;;;;;;2.07;0.40;;;;;;;;;;5124038;27;20764;-34
2023/10/20 14:59:06;;;;;;;0.20;0.20;;;;;;;;;;5198083;22;20227;-40
2023/10/20 15:01:46;;;;;;;0.87;0.50;;;;;;;;;;5086992;28;20214;-41
2023/10/20 15:04:25;;;;;;;1.13;0.37;;;;;;;;;;5090540;28;20206;-39
2023/10/20 15:07:04;;;;;;;3.20;0.63;;;;;;;;;;5068649;28;20284;-41
2023/10/20 15:12:37;;;;;;;0.50;0.43;;;;;;;;;;5054010;28;20241;-42
2023/10/20 15:15:28;;;;;;;1.30;0.50;;;;;;;;;;5078736;28;20200;-40
2023/10/20 15:18:38;;;;;;;1.17;0.60;;;;;;;;;;5086046;28;20269;-42
2023/10/20 15:21:18;;;;;;;0.80;0.80;;;;;;;;;;5074845;28;20197;-39
2023/10/20 15:24:16;;;;;;;1.10;0.77;;;;;;;;;;5086224;28;20240;-38
2023/10/20 15:30:05;;;;;;;2.60;2.40;;;;;;;;;;5067716;28;20307;-36
2023/10/20 15:32:36;;;;;;;3.60;3.17;;;;;;;;;;5085720;28;20211;-36
2023/10/20 15:38:12;;;;;;;1.10;1.00;;;;;;;;;;5068524;28;20230;-37
2023/10/20 15:49:19;;;;;;;0.93;0.93;;;;;;;;;;5084612;28;20223;-41
2023/10/20 15:51:54;;;;;;;1.73;1.37;;;;;;;;;;5082150;28;20239;-40
2023/10/20 15:54:39;;;;;;;1.20;1.20;;;;;;;;;;5082286;28;20231;-33
2023/10/20 15:57:15;;;;;;;1.37;0.97;;;;;;;;;;5080940;28;20227;-37
2023/10/20 16:02:39;;;;;;;0.83;0.60;;;;;;;;;;5086823;28;20227;-43
2023/10/20 16:05:21;;;;;;;0.87;0.87;;;;;;;;;;5065588;28;20288;-37
2023/10/20 16:08:00;;;;;;;0.60;0.60;;;;;;;;;;5084577;28;20387;-41
2023/10/20 16:10:49;;;;;;;1.37;1.27;;;;;;;;;;5084007;28;20273;-34
2023/10/20 16:16:24;;;;;;;1.67;0.87;;;;;;;;;;4999919;28;20216;-40
2023/10/20 16:19:21;;;;;;;;;;;;;;;;;;;;;
2023/10/20 16:25:19;;;;;;;2.17;1.20;;;;;;;;;;5079992;28;20203;-39
2023/10/20 16:28:02;;;;;;;2.07;1.50;;;;;;;;;;5076990;28;20208;-38
2023/10/20 16:30:40;;;;;;;;;;;;;;;;;;;;;
2023/10/20 16:33:27;;;;;;;1.00;1.00;;;;;;;;;;5081755;28;20211;-36
2023/10/20 16:36:06;;;;;;;1.30;1.10;;;;;;;;;;5080214;28;20215;-38
2023/10/20 16:38:46;;;;;;;1.20;1.13;;;;;;;;;;5078669;28;20228;-37
2023/10/20 16:41:23;;;;;;;1.50;1.27;;;;;;;;;;5084582;28;20208;-38
2023/10/20 16:46:46;;;;;;;3.03;1.27;;;;;;;;;;5079830;28;20202;-42
2023/10/20 16:52:20;;;;;;;2.00;1.20;;;;;;;;;;5084991;28;20212;-39
2023/10/20 16:57:46;;;;;;;2.30;2.10;;;;;;;;;;5071186;28;20363;-38
2023/10/20 17:00:26;;;;;;;1.47;1.37;;;;;;;;;;5084801;28;20246;-36
2023/10/20 17:03:26;;;;;;;2.87;1.70;;;;;;;;;;5085238;28;20207;-39
2023/10/20 17:06:04;;;;;;;3.53;1.70;;;;;;;;;;5002188;28;20269;-39
2023/10/20 17:08:46;;;;;;;2.23;1.80;;;;;;;;;;4997613;28;20310;-37
2023/10/20 17:11:46;;;;;;;2.87;1.50;;;;;;;;;;4993830;28;20211;-40
2023/10/20 17:17:13;;;;;;;2.17;1.40;;;;;;;;;;5047246;28;20412;-38
2023/10/20 17:19:40;;;;;;;1.40;1.30;;;;;;;;;;5081654;28;20231;-39
2023/10/20 17:22:11;;;;;;;1.90;1.80;;;;;;;;;;5074020;28;20514;-38
2023/10/20 17:24:52;;;;;;;2.90;1.90;;;;;;;;;;5081717;28;20251;-40
2023/10/20 17:27:46;;;;;;;1.60;1.50;;;;;;;;;;5079261;28;20616;-37
2023/10/20 17:33:46;;;;;;;1.20;1.20;;;;;;;;;;5066860;28;20205;-44
2023/10/20 17:39:33;;;;;;;3.80;1.40;;;;;;;;;;5075575;28;20218;-39
2023/10/20 17:42:16;;;;;;;2.10;1.90;;;;;;;;;;5076110;28;20464;-39
2023/10/20 17:45:05;;;;;;;2.20;1.97;;;;;;;;;;5077757;28;20201;-36
2023/10/20 17:51:12;;;;;;;2.57;2.37;;;;;;;;;;5019521;28;20263;-36
2023/10/20 17:53:59;;;;;;;3.10;2.30;;;;;;;;;;5017788;28;20205;-37
2023/10/20 17:56:31;;;;;;;3.60;2.10;;;;;;;;;;5086472;28;20200;-39
2023/10/20 18:02:08;;;;;;;1.97;1.77;;;;;;;;;;5082329;28;20213;-35
2023/10/20 18:04:44;;;;;;;2.57;2.20;;;;;;;;;;5081864;28;20202;-43
2023/10/20 18:07:34;;;;;;;3.67;2.03;;;;;;;;;;5078104;28;20210;-38
2023/10/20 18:13:06;;;;;;;2.40;2.20;;;;;;;;;;5076418;28;20318;-34
2023/10/20 18:18:39;;;;;;;3.10;2.33;;;;;;;;;;5066130;28;20230;-41
2023/10/20 18:21:35;;;;;;;2.97;1.97;;;;;;;;;;5079212;28;20230;-40
2023/10/20 18:24:20;;;;;;;2.70;2.13;;;;;;;;;;5074729;28;20205;-41
2023/10/20 18:29:59;;;;;;;2.67;2.47;;;;;;;;;;5073882;28;20232;-44